Flight Track Log - Related Links

Times and Time Zones

All times are in EDT time to prevent confusion due to time zone crossing. See the SWA2004 flight status page for this flight to view local times or setup timezone preferences in your user account.

Time Position Orientation Groundspeed Altitude Reporting Facility
EDT Latitude Longitude Course Direction KTS MPH feet Rate Location/Type
Sun 10:22:23 PM 36.1667 -86.6667 22° Northeast 185 213 3,100  Level Nashville TRACON
Sun 10:23:17 PM 36.2333 -86.6333 22° Northeast 274 315 5,600 3,290 Climbing Nashville TRACON
Sun 10:24:58 PM 36.3511 -86.5744 22° Northeast 313 360 11,600 3,652 Climbing Memphis Center
Sun 10:25:58 PM 36.4350 -86.5292 23° Northeast 319 367 15,400 3,400 Climbing Memphis Center
Sun 10:26:58 PM 36.5294 -86.4756 25° Northeast 347 399 18,400 3,150 Climbing Memphis Center
Sun 10:27:00 PM 36.7621 -86.3682 15° North  Level FlightAware Approximate
Sun 10:27:58 PM 36.6278 -86.4217 24° Northeast 374 430 21,700  Level Memphis Center
Sun 10:30:29 PM 36.8864 -86.2756 24° Northeast 414 476 28,200 2,645 Climbing Indianapolis Center
Sun 10:31:29 PM 36.9947 -86.2139 24° Northeast 424 488 31,000 2,380 Climbing Indianapolis Center
Sun 10:32:30 PM 37.1006 -86.1539 24° Northeast 414 476 33,000 659 Climbing Indianapolis Center
Sun 10:34:31 PM 37.3183 -86.0311 24° Northeast 428 493 33,000  Level Indianapolis Center
Sun 10:35:32 PM 37.4356 -85.9636 25° Northeast 454 522 33,000  Level Indianapolis Center
Sun 10:36:33 PM 37.5647 -85.8897 24° Northeast 456 525 33,000  Level Indianapolis Center
Sun 10:37:33 PM 37.6814 -85.8236 24° Northeast 457 526 33,000  Level Indianapolis Center
Sun 10:38:34 PM 37.7950 -85.7569 25° Northeast 451 519 33,000  Level Indianapolis Center
Sun 10:39:35 PM 37.9094 -85.6903 25° Northeast 452 520 33,000  Level Indianapolis Center
Sun 10:40:36 PM 38.0228 -85.6244 25° Northeast 449 517 33,000 -446 Level Indianapolis Center
Sun 10:41:36 PM 38.1314 -85.5494 29° Northeast 450 518 32,100 -893 Descending Indianapolis Center
Sun 10:42:37 PM 38.2328 -85.4539 37° Northeast 454 522 31,200 -541 Descending Indianapolis Center
Sun 10:43:38 PM 38.3333 -85.3597 36° Northeast 447 514 31,000 -99 Descending Indianapolis Center
Sun 10:44:38 PM 38.4322 -85.2647 37° Northeast 443 510 31,000  Level Indianapolis Center
Sun 10:45:39 PM 38.5433 -85.1586 37° Northeast 451 519 31,000  Level Indianapolis Center
Sun 10:46:40 PM 38.6422 -85.0644 37° Northeast 443 510 31,000  Level Indianapolis Center
Sun 10:47:40 PM 38.7325 -84.9772 37° Northeast 448 516 31,000 -1,140 Level Indianapolis Center
Sun 10:48:41 PM 38.8408 -84.8728 37° Northeast 444 511 28,700 -2,311 Descending Indianapolis Center
Sun 10:49:42 PM 38.9264 -84.7892 37° Northeast 444 511 26,300 -2,311 Descending Indianapolis Center
Sun 10:50:43 PM 39.0203 -84.6933 38° Northeast 430 495 24,000 -1,636 Descending Indianapolis Center
Sun 10:51:43 PM 39.0889 -84.5697 54° Northeast 422 486 23,000 -992 Descending Indianapolis Center
Sun 10:52:44 PM 39.1578 -84.4478 54° Northeast 419 482 22,000 -984 Descending Indianapolis Center
Sun 10:53:45 PM 39.2233 -84.3247 55° Northeast 415 478 21,000 -992 Descending Indianapolis Center
Sun 10:54:45 PM 39.2886 -84.2047 55° Northeast 407 468 20,000 -992 Descending Indianapolis Center
Sun 10:55:46 PM 39.3408 -84.0772 62° Northeast 397 457 19,000 -541 Descending Indianapolis Center
Sun 10:56:47 PM 39.3886 -83.9503 64° Northeast 391 450 18,900 -496 Descending Indianapolis Center
Sun 10:57:47 PM 39.4336 -83.8353 63° Northeast 364 419 18,000 -1,587 Descending Indianapolis Center
Sun 10:58:48 PM 39.4831 -83.7050 64° Northeast 346 398 15,700 -2,066 Descending Indianapolis Center
Sun 10:59:49 PM 39.5244 -83.5969 64° Northeast 336 387 13,800 -1,770 Descending Indianapolis Center
Sun 11:00:50 PM 39.5639 -83.4925 64° Northeast 324 373 12,100 -1,421 Descending Indianapolis Center
Sun 11:01:43 PM 39.5994 -83.4058 62° Northeast 311 358 11,100 -545 Descending Indianapolis Center
Sun 11:02:51 PM 39.6581 -83.3097 52° Northeast 303 349 11,000 -99 Descending Indianapolis Center
Sun 11:03:44 PM 39.7094 -83.2428 45° Northeast 308 354 10,900 -1,082 Descending Indianapolis Center
Sun 11:04:53 PM 39.8006 -83.2167 12° North 302 348 8,800 -1,835 Descending Indianapolis Center
Sun 11:05:45 PM 39.8758 -83.2000 10° North 298 343 7,200 -1,699 Descending Indianapolis Center
Sun 11:06:46 PM 39.9311 -83.1278 45° Northeast 273 314 5,600 -1,574 Descending Indianapolis Center
Sun 11:07:47 PM 39.9881 -83.0908 26° Northeast 211 243 4,000 -1,162 Descending Indianapolis Center
Sun 11:09:00 PM 39.9951 -82.9511 90° East  Level Estimated
Sun 11:09:57 PM 39.9983 -82.9750 90° East 162 186 1,900  Level Indianapolis Center
Sun 11:10:48 PM 39.9967 -82.9367 93° East 112 129 1,300 -446 Descending Indianapolis Center
Sun 11:11:58 PM 39.9942 -82.8828 93° East 130 150 1,000 -257 Descending Indianapolis Center
Sun 11:13:00 PM 39.9833 -82.8833 270° West  Level FlightAware Approximate

Login

Don't have an account? Register now (free) for customized features, flight alerts, and more!